Time;durP1;ratioP1;P1;durP2;ratioP2;P2;SDS_P1;SDS_P2;PMS_P1;PMS_P2;Temp;Humidity;BMP_temperature;BMP_pressure;BME280_temperature;BME280_humidity;BME280_pressure;Samples;Min_cycle;Max_cycle;Signal;HPM_P1;HPM_P2
2022/02/26 00:01:29;;;;;;;;;;;4.20;99.90;;;;;;4978058;28;20031;-78
2022/02/26 00:03:54;;;;;;;18.95;8.95;;;4.10;99.90;;;;;;4973676;28;20044;-78
2022/02/26 00:06:20;;;;;;;27.17;13.85;;;4.10;99.90;;;;;;4975991;28;20709;-78
2022/02/26 00:08:45;;;;;;;;;;;4.00;99.90;;;;;;4975077;28;20097;-78
2022/02/26 00:11:11;;;;;;;24.98;12.38;;;4.00;99.90;;;;;;4975260;28;19974;-79
2022/02/26 00:13:37;;;;;;;24.10;12.70;;;4.00;99.90;;;;;;4976831;28;20041;-78
2022/02/26 00:16:03;;;;;;;27.80;12.18;;;3.90;99.90;;;;;;4984725;28;20047;-79
2022/02/26 00:18:29;;;;;;;;;;;3.90;99.90;;;;;;4981105;28;20027;-78
2022/02/26 00:20:54;;;;;;;48.97;16.10;;;3.90;99.90;;;;;;4971547;28;19973;-78
2022/02/26 00:23:21;;;;;;;38.75;13.55;;;3.80;99.90;;;;;;4971302;28;20050;-79
2022/02/26 00:25:46;;;;;;;37.20;14.25;;;3.90;99.90;;;;;;4972411;28;20041;-77
2022/02/26 00:28:12;;;;;;;28.63;11.23;;;3.80;99.90;;;;;;4971010;28;20047;-77
2022/02/26 00:30:38;;;;;;;25.13;9.40;;;3.80;99.90;;;;;;4972550;28;20051;-78
2022/02/26 00:33:05;;;;;;;28.85;12.07;;;3.80;99.90;;;;;;4970378;28;20073;-78
2022/02/26 00:35:31;;;;;;;19.13;7.55;;;3.70;99.90;;;;;;4970729;28;20145;-78
2022/02/26 00:37:56;;;;;;;12.30;5.45;;;3.70;99.90;;;;;;4972610;28;20110;-78
2022/02/26 00:40:22;;;;;;;;;;;3.70;99.90;;;;;;4971478;28;20101;-78
2022/02/26 00:42:48;;;;;;;9.38;5.10;;;3.60;99.90;;;;;;4970974;28;20548;-78
2022/02/26 00:45:14;;;;;;;14.60;5.90;;;3.50;99.90;;;;;;4970869;28;20141;-78
2022/02/26 00:47:40;;;;;;;15.93;7.13;;;3.40;99.90;;;;;;4973963;28;20035;-77
2022/02/26 00:50:05;;;;;;;;;;;3.40;99.90;;;;;;4973347;28;20472;-78
2022/02/26 00:52:33;;;;;;;12.57;6.05;;;3.40;99.90;;;;;;4977394;28;20054;-79
2022/02/26 00:55:00;;;;;;;16.73;8.40;;;3.30;99.90;;;;;;4980553;28;20089;-81
2022/02/26 00:57:27;;;;;;;20.17;6.45;;;3.30;99.90;;;;;;4980546;28;20045;-81
2022/02/26 00:59:52;;;;;;;;;;;3.40;99.90;;;;;;4980969;28;20033;-80
2022/02/26 01:02:19;;;;;;;10.50;5.63;;;3.40;99.90;;;;;;4978343;28;19957;-80
2022/02/26 01:04:47;;;;;;;7.90;4.07;;;3.30;99.90;;;;;;4980701;28;20054;-80
2022/02/26 01:07:13;;;;;;;10.80;4.75;;;3.30;99.90;;;;;;4979644;28;20041;-80
2022/02/26 01:09:39;;;;;;;9.70;4.97;;;3.30;99.90;;;;;;4980398;28;20046;-79
2022/02/26 01:12:06;;;;;;;11.68;6.40;;;3.20;99.90;;;;;;4976249;28;20026;-79
2022/02/26 01:14:33;;;;;;;12.50;6.43;;;3.30;99.90;;;;;;4977709;28;20053;-79
2022/02/26 01:17:00;;;;;;;9.88;4.90;;;3.30;99.90;;;;;;4976070;28;20022;-80
2022/02/26 01:19:26;;;;;;;14.95;5.72;;;3.20;99.90;;;;;;4977315;28;20039;-80
2022/02/26 01:21:52;;;;;;;12.95;6.15;;;3.20;99.90;;;;;;4975823;28;20065;-80
2022/02/26 01:24:18;;;;;;;;;;;3.20;99.90;;;;;;4981168;28;20534;-79
2022/02/26 01:26:44;;;;;;;8.13;4.57;;;3.30;99.90;;;;;;4979775;28;19918;-78
2022/02/26 01:29:10;;;;;;;11.15;5.40;;;3.20;99.90;;;;;;4980119;28;20030;-80
2022/02/26 01:31:39;;;;;;;9.25;4.32;;;3.30;99.90;;;;;;4981836;28;20034;-80
2022/02/26 01:34:06;;;;;;;11.30;5.47;;;3.20;99.90;;;;;;4983778;28;20034;-79
2022/02/26 01:36:34;;;;;;;20.33;10.88;;;3.10;99.90;;;;;;4987179;28;20026;-80
2022/02/26 01:39:00;;;;;;;24.65;12.35;;;3.10;99.90;;;;;;4988452;28;20528;-79
2022/02/26 01:41:29;;;;;;;16.60;7.55;;;3.10;99.90;;;;;;4982554;28;20059;-79
2022/02/26 01:43:55;;;;;;;25.63;11.30;;;3.10;99.90;;;;;;4980792;28;20591;-80
2022/02/26 01:46:21;;;;;;;23.63;11.02;;;3.10;99.90;;;;;;4982132;28;20047;-80
2022/02/26 01:48:47;;;;;;;23.00;8.52;;;3.10;99.90;;;;;;4977673;28;20089;-78
2022/02/26 01:51:16;;;;;;;;;;;3.10;99.90;;;;;;4978955;28;20407;-79
2022/02/26 01:53:41;;;;;;;17.48;7.00;;;3.10;99.90;;;;;;4978764;28;19910;-79
2022/02/26 01:56:09;;;;;;;16.60;6.90;;;3.10;99.90;;;;;;4978511;28;20023;-79
2022/02/26 01:58:35;;;;;;;13.85;6.95;;;3.10;99.90;;;;;;4977408;28;20055;-79
2022/02/26 02:01:03;;;;;;;18.25;7.57;;;3.00;99.90;;;;;;4979080;28;20508;-79
2022/02/26 02:03:28;;;;;;;12.40;6.15;;;3.10;99.90;;;;;;4977713;28;20049;-79
2022/02/26 02:05:55;;;;;;;10.23;4.68;;;3.00;99.90;;;;;;4976967;28;20031;-80
2022/02/26 02:08:22;;;;;;;13.15;5.28;;;3.00;99.90;;;;;;4976390;28;20046;-79
2022/02/26 02:10:50;;;;;;;10.90;5.28;;;2.90;99.90;;;;;;4976605;28;20027;-78
2022/02/26 02:13:17;;;;;;;10.68;4.47;;;2.90;99.90;;;;;;4976409;28;20046;-79
2022/02/26 02:15:43;;;;;;;10.73;4.72;;;2.90;99.90;;;;;;4978415;28;20022;-80
2022/02/26 02:18:13;;;;;;;11.32;4.53;;;2.90;99.90;;;;;;4982390;28;20034;-79
2022/02/26 02:20:41;;;;;;;10.40;4.15;;;2.90;99.90;;;;;;4982038;28;20268;-80
2022/02/26 02:23:07;;;;;;;11.63;5.78;;;2.90;99.90;;;;;;4983314;28;20110;-79
2022/02/26 02:25:34;;;;;;;;;;;2.80;99.90;;;;;;4981945;28;20034;-80
2022/02/26 02:28:03;;;;;;;10.88;5.05;;;2.70;99.90;;;;;;4981734;28;19917;-78
2022/02/26 02:30:30;;;;;;;11.82;5.30;;;2.80;99.90;;;;;;4984325;28;20090;-80
2022/02/26 02:32:57;;;;;;;15.40;6.43;;;2.80;99.90;;;;;;4984709;28;20085;-81
2022/02/26 02:35:32;;;;;;;13.85;5.28;;;2.90;99.90;;;;;;4984368;28;20492;-80
2022/02/26 02:37:59;;;;;;;12.70;5.95;;;2.70;99.90;;;;;;4979520;28;20115;-80
2022/02/26 02:40:25;;;;;;;11.18;4.28;;;2.70;99.90;;;;;;4980457;28;20426;-80
2022/02/26 02:42:52;;;;;;;11.10;4.68;;;2.70;99.90;;;;;;4985820;28;20031;-80
2022/02/26 02:45:18;;;;;;;9.80;4.32;;;2.70;99.90;;;;;;4984771;28;20135;-79
2022/02/26 02:47:45;;;;;;;10.15;5.13;;;2.60;99.90;;;;;;4985828;28;20512;-81
2022/02/26 02:50:11;;;;;;;12.50;5.43;;;2.50;99.90;;;;;;4982312;28;20550;-81
2022/02/26 02:52:37;;;;;;;15.10;5.10;;;2.50;99.90;;;;;;4987456;28;20031;-80
2022/02/26 02:55:04;;;;;;;12.27;5.07;;;2.40;99.90;;;;;;4988341;28;20050;-79
2022/02/26 02:57:29;;;;;;;11.23;4.55;;;2.40;99.90;;;;;;4981574;28;20556;-78
2022/02/26 02:59:55;;;;;;;10.68;4.88;;;2.40;99.90;;;;;;4980495;28;20031;-78
2022/02/26 03:02:21;;;;;;;10.55;5.32;;;2.30;99.90;;;;;;4980417;28;20038;-79
2022/02/26 03:04:46;;;;;;;12.10;6.03;;;2.20;99.90;;;;;;4983051;28;20114;-78
2022/02/26 03:07:12;;;;;;;14.40;6.28;;;2.30;99.90;;;;;;4983510;28;20107;-80
2022/02/26 03:09:37;;;;;;;;;;;2.20;99.90;;;;;;4985356;28;20041;-81
2022/02/26 03:12:03;;;;;;;10.23;4.60;;;2.20;99.90;;;;;;4983193;28;19957;-81
2022/02/26 03:14:29;;;;;;;13.10;5.75;;;2.10;99.90;;;;;;4985054;28;20088;-80
2022/02/26 03:16:55;;;;;;;;;;;2.00;99.90;;;;;;4981587;28;20478;-79
2022/02/26 03:19:21;;;;;;;9.85;4.28;;;2.00;99.90;;;;;;4983776;28;19917;-80
2022/02/26 03:21:47;;;;;;;10.15;3.85;;;1.90;99.90;;;;;;4976456;28;20030;-79
2022/02/26 03:24:13;;;;;;;8.93;3.67;;;1.90;99.90;;;;;;4978678;28;20118;-81
2022/02/26 03:26:39;;;;;;;;;;;1.80;99.90;;;;;;4984200;28;20034;-79
2022/02/26 03:29:07;;;;;;;7.68;2.92;;;1.80;99.90;;;;;;4984091;28;19921;-81
2022/02/26 03:31:33;;;;;;;7.13;2.38;;;1.70;99.90;;;;;;4981536;28;20027;-78
2022/02/26 03:33:59;;;;;;;8.63;4.47;;;1.60;99.90;;;;;;4981045;28;20035;-80
2022/02/26 03:36:27;;;;;;;;;;;1.70;99.90;;;;;;4982083;28;20027;-79
2022/02/26 03:38:53;;;;;;;10.27;3.78;;;1.50;99.90;;;;;;4980900;28;20338;-81
2022/02/26 03:41:19;;;;;;;;;;;1.40;99.90;;;;;;4983645;28;20046;-80
2022/02/26 03:43:46;;;;;;;8.57;3.60;;;1.30;99.90;;;;;;4981170;28;20367;-80
2022/02/26 03:46:12;;;;;;;10.82;4.00;;;1.30;99.90;;;;;;4983173;28;20050;-80
2022/02/26 03:48:37;;;;;;;;;;;1.20;99.90;;;;;;4981935;28;20511;-80
2022/02/26 03:51:05;;;;;;;8.45;3.17;;;1.20;99.90;;;;;;4982057;28;19906;-79
2022/02/26 03:53:32;;;;;;;12.25;3.42;;;1.10;99.90;;;;;;4981969;28;20031;-80
2022/02/26 03:55:59;;;;;;;7.22;3.47;;;1.10;99.90;;;;;;4980642;28;20042;-80
2022/02/26 03:58:25;;;;;;;9.90;3.45;;;1.30;99.90;;;;;;4982035;28;20031;-80
2022/02/26 04:00:51;;;;;;;;;;;1.40;99.90;;;;;;4984071;28;20500;-80
2022/02/26 04:03:16;;;;;;;10.30;2.88;;;1.40;99.90;;;;;;4980983;28;19969;-80
2022/02/26 04:05:42;;;;;;;;;;;1.50;99.90;;;;;;4980051;28;20081;-79
2022/02/26 04:08:08;;;;;;;8.23;3.83;;;1.50;99.90;;;;;;4981227;28;19920;-80
2022/02/26 04:10:33;;;;;;;;;;;1.70;99.90;;;;;;4981086;28;20047;-80
2022/02/26 04:12:59;;;;;;;11.05;5.22;;;1.80;99.90;;;;;;4982610;28;19929;-79
2022/02/26 04:15:25;;;;;;;11.68;5.50;;;2.00;99.90;;;;;;4981122;28;20015;-80
2022/02/26 04:17:51;;;;;;;12.18;5.88;;;2.00;99.90;;;;;;4983052;28;20230;-80
2022/02/26 04:20:16;;;;;;;14.18;5.30;;;2.00;99.90;;;;;;4982504;28;20027;-81
2022/02/26 04:22:42;;;;;;;12.63;5.30;;;1.90;99.90;;;;;;4981644;28;20062;-80
2022/02/26 04:25:08;;;;;;;;;;;1.90;99.90;;;;;;4982441;28;20522;-80
2022/02/26 04:27:34;;;;;;;13.73;4.80;;;1.90;99.90;;;;;;4982259;28;19925;-81
2022/02/26 04:30:01;;;;;;;10.20;3.17;;;1.90;99.90;;;;;;4981840;28;20023;-80
2022/02/26 04:32:26;;;;;;;12.52;3.15;;;1.80;99.90;;;;;;4980586;28;20035;-80
2022/02/26 04:34:52;;;;;;;;;;;1.80;99.90;;;;;;4982652;28;20053;-80
2022/02/26 04:37:20;;;;;;;10.90;3.00;;;1.70;99.90;;;;;;4981042;28;19910;-80
2022/02/26 04:39:47;;;;;;;10.60;2.92;;;1.60;99.90;;;;;;4981346;28;20026;-79
2022/02/26 04:42:13;;;;;;;8.25;2.92;;;1.70;99.90;;;;;;4981080;28;20023;-80
2022/02/26 04:44:38;;;;;;;;;;;1.60;99.90;;;;;;4981379;28;20591;-79
2022/02/26 04:47:04;;;;;;;9.85;3.55;;;1.70;99.90;;;;;;4980389;28;19957;-79
2022/02/26 04:49:30;;;;;;;;;;;1.60;99.90;;;;;;4982614;28;20023;-80
2022/02/26 04:51:56;;;;;;;9.32;3.45;;;1.60;99.90;;;;;;4982425;28;19932;-79
2022/02/26 04:54:21;;;;;;;10.60;3.50;;;1.60;99.90;;;;;;4983737;28;20035;-79
2022/02/26 04:56:47;;;;;;;7.55;3.85;;;1.60;99.90;;;;;;4983564;28;20073;-80
2022/02/26 04:59:13;;;;;;;9.30;3.85;;;1.60;99.90;;;;;;4986570;28;20058;-80
2022/02/26 05:01:38;;;;;;;8.73;4.10;;;1.60;99.90;;;;;;4988351;28;20029;-80
2022/02/26 05:04:04;;;;;;;;;;;1.60;99.90;;;;;;4987921;28;20035;-81
2022/02/26 05:06:29;;;;;;;11.32;3.78;;;1.70;99.90;;;;;;4987035;28;20303;-80
2022/02/26 05:08:55;;;;;;;10.13;3.60;;;1.70;99.90;;;;;;4985608;28;20038;-79
2022/02/26 05:11:21;;;;;;;;;;;1.70;99.90;;;;;;4987636;28;20050;-79
2022/02/26 05:13:46;;;;;;;9.05;4.20;;;1.70;99.90;;;;;;4985095;28;19921;-79
2022/02/26 05:16:12;;;;;;;9.55;4.15;;;1.70;99.90;;;;;;4984886;28;20035;-79
2022/02/26 05:18:38;;;;;;;;;;;1.70;99.90;;;;;;4984106;28;20030;-81
2022/02/26 05:21:04;;;;;;;12.52;4.50;;;1.90;99.90;;;;;;4984761;28;19957;-79
2022/02/26 05:23:30;;;;;;;12.15;6.15;;;1.80;99.90;;;;;;4986150;28;20046;-79
2022/02/26 05:25:55;;;;;;;;;;;1.70;99.90;;;;;;4985866;28;20483;-80
2022/02/26 05:28:21;;;;;;;21.25;7.97;;;1.70;99.90;;;;;;4991033;28;19918;-80
2022/02/26 05:30:46;;;;;;;;;;;1.70;99.90;;;;;;4994348;28;20030;-80
2022/02/26 05:33:12;;;;;;;18.52;9.02;;;1.70;99.90;;;;;;4984727;28;19913;-80
2022/02/26 05:35:38;;;;;;;14.07;8.13;;;1.70;99.90;;;;;;4984464;28;20031;-80
2022/02/26 05:38:04;;;;;;;13.25;6.07;;;1.60;99.90;;;;;;4984639;28;20031;-78
2022/02/26 05:40:29;;;;;;;;;;;1.60;99.90;;;;;;4983761;28;20030;-81
2022/02/26 05:42:55;;;;;;;16.02;5.53;;;1.60;99.90;;;;;;4983808;28;19936;-80
2022/02/26 05:45:21;;;;;;;21.63;8.05;;;1.60;99.90;;;;;;4981904;28;20060;-80
2022/02/26 05:47:46;;;;;;;15.75;8.85;;;1.60;99.90;;;;;;4982640;28;20072;-80
2022/02/26 05:50:13;;;;;;;;;;;1.60;99.90;;;;;;4982191;28;20037;-80
2022/02/26 05:52:39;;;;;;;22.15;9.82;;;1.60;99.90;;;;;;4984945;28;19909;-79
2022/02/26 05:55:04;;;;;;;;;;;1.60;99.90;;;;;;4982897;28;20099;-80
2022/02/26 05:57:30;;;;;;;13.65;7.45;;;1.50;99.90;;;;;;4982145;28;20290;-79
2022/02/26 05:59:56;;;;;;;15.63;7.50;;;1.60;99.90;;;;;;4982949;28;20026;-80
2022/02/26 06:02:21;;;;;;;;;;;1.60;99.90;;;;;;4983383;28;20035;-79
2022/02/26 06:04:47;;;;;;;21.60;10.02;;;1.60;99.90;;;;;;4983472;28;19906;-80
2022/02/26 06:07:12;;;;;;;;;;;1.50;99.90;;;;;;4985231;28;20030;-80
2022/02/26 06:09:38;;;;;;;18.23;10.45;;;1.50;99.90;;;;;;4981244;28;20363;-79
2022/02/26 06:12:04;;;;;;;20.73;9.63;;;1.50;99.90;;;;;;4983699;28;20042;-80
2022/02/26 06:14:30;;;;;;;;;;;1.50;99.90;;;;;;4984424;28;20027;-80
2022/02/26 06:16:56;;;;;;;22.30;11.27;;;1.60;99.90;;;;;;4983377;28;20366;-80
2022/02/26 06:19:21;;;;;;;28.77;14.13;;;1.60;99.90;;;;;;4985073;28;20031;-80
2022/02/26 06:21:48;;;;;;;;;;;1.60;99.90;;;;;;4984035;28;20042;-79
2022/02/26 06:24:15;;;;;;;21.88;9.52;;;1.70;99.90;;;;;;4981839;28;19913;-80
2022/02/26 06:26:40;;;;;;;17.45;7.88;;;1.90;99.90;;;;;;4982630;28;20404;-80
2022/02/26 06:29:06;;;;;;;;;;;2.00;99.90;;;;;;4984147;28;20527;-80
2022/02/26 06:31:31;;;;;;;7.35;3.03;;;2.30;99.90;;;;;;4985435;28;19914;-80
2022/02/26 06:33:57;;;;;;;;;;;2.50;98.90;;;;;;4987260;28;20037;-80
2022/02/26 06:36:23;;;;;;;6.50;2.13;;;2.90;95.50;;;;;;4984421;28;19921;-80
2022/02/26 06:38:48;;;;;;;;;;;3.30;90.80;;;;;;4983974;28;20030;-81
2022/02/26 06:41:14;;;;;;;7.05;3.22;;;3.60;89.80;;;;;;4985394;28;19963;-80
2022/02/26 06:43:40;;;;;;;;;;;3.80;84.20;;;;;;4985269;28;20041;-79
2022/02/26 06:46:07;;;;;;;9.95;4.25;;;4.10;79.10;;;;;;4985650;28;19922;-81
2022/02/26 06:48:33;;;;;;;12.50;4.25;;;4.30;76.80;;;;;;4986394;28;20626;-80
2022/02/26 06:50:59;;;;;;;11.93;3.28;;;4.50;76.30;;;;;;4985391;28;20027;-79
2022/02/26 06:53:24;;;;;;;;;;;4.70;72.00;;;;;;4986624;28;20035;-80
2022/02/26 06:55:50;;;;;;;9.35;2.17;;;4.80;69.80;;;;;;4983067;28;19910;-80
2022/02/26 06:58:15;;;;;;;7.68;2.90;;;5.00;67.80;;;;;;4985513;28;20054;-80
2022/02/26 07:00:41;;;;;;;7.38;2.10;;;5.10;67.30;;;;;;4986739;28;20045;-80
2022/02/26 07:03:06;;;;;;;;;;;5.40;63.80;;;;;;4984251;28;20058;-81
2022/02/26 07:05:32;;;;;;;8.48;1.77;;;5.50;63.30;;;;;;4984462;28;20000;-79
2022/02/26 07:07:58;;;;;;;4.97;2.00;;;5.70;62.20;;;;;;4985981;28;20039;-80
2022/02/26 07:10:23;;;;;;;5.18;1.80;;;5.90;62.20;;;;;;4985161;28;20055;-80
2022/02/26 07:12:49;;;;;;;6.53;1.60;;;6.00;60.30;;;;;;4984697;28;20027;-80
2022/02/26 07:15:14;;;;;;;;;;;6.00;59.90;;;;;;4986915;28;20035;-79
2022/02/26 07:17:40;;;;;;;8.07;2.88;;;6.10;59.40;;;;;;4988702;28;19913;-80
2022/02/26 07:20:06;;;;;;;;;;;6.20;59.70;;;;;;4988971;28;20042;-80
2022/02/26 07:22:32;;;;;;;7.65;2.25;;;6.40;57.70;;;;;;4987575;28;19960;-80
2022/02/26 07:24:58;;;;;;;5.55;1.70;;;6.40;57.60;;;;;;4987553;28;20094;-80
2022/02/26 07:27:23;;;;;;;;;;;6.50;56.60;;;;;;4987202;28;20051;-80
2022/02/26 07:29:49;;;;;;;7.57;2.72;;;6.60;57.90;;;;;;4987552;28;19906;-80
2022/02/26 07:32:15;;;;;;;7.30;2.22;;;6.60;57.80;;;;;;4987034;28;20033;-78
2022/02/26 07:34:40;;;;;;;12.00;2.65;;;6.80;57.80;;;;;;4988886;28;20500;-80
2022/02/26 07:37:06;;;;;;;12.05;3.25;;;7.00;56.80;;;;;;4989759;28;20050;-79
2022/02/26 07:39:32;;;;;;;7.18;2.53;;;7.20;56.10;;;;;;4984960;28;20487;-79
2022/02/26 07:41:57;;;;;;;;;;;7.20;55.30;;;;;;4986983;28;20381;-81
2022/02/26 07:44:23;;;;;;;13.90;3.20;;;7.30;54.60;;;;;;4984388;28;19949;-79
2022/02/26 07:46:48;;;;;;;;;;;7.40;54.60;;;;;;4985654;28;20035;-80
2022/02/26 07:49:14;;;;;;;8.27;3.70;;;7.50;53.30;;;;;;4984618;28;19907;-79
2022/02/26 07:51:40;;;;;;;11.98;4.10;;;7.50;52.80;;;;;;4985703;28;20015;-80
2022/02/26 07:54:05;;;;;;;;;;;7.60;53.10;;;;;;4989931;28;20422;-80
2022/02/26 07:56:31;;;;;;;9.57;3.75;;;7.60;52.80;;;;;;4990256;28;19910;-79
2022/02/26 07:58:57;;;;;;;10.60;3.72;;;7.70;52.60;;;;;;4988665;28;20061;-80
2022/02/26 08:01:22;;;;;;;17.58;6.35;;;7.80;51.40;;;;;;4988599;28;20082;-79
2022/02/26 08:03:49;;;;;;;;;;;8.00;50.90;;;;;;4992304;28;20061;-80
2022/02/26 08:06:14;;;;;;;6.07;2.60;;;8.20;50.10;;;;;;4997282;28;19894;-79
2022/02/26 08:08:40;;;;;;;6.57;1.92;;;8.40;47.70;;;;;;4989641;28;20073;-80
2022/02/26 08:11:06;;;;;;;4.18;1.75;;;8.50;46.80;;;;;;4985675;28;20062;-79
2022/02/26 08:13:32;;;;;;;;;;;8.30;48.30;;;;;;4988405;28;20046;-79
2022/02/26 08:15:58;;;;;;;5.55;1.90;;;8.20;48.50;;;;;;4987936;28;20331;-79
2022/02/26 08:18:26;;;;;;;;;;;8.30;47.60;;;;;;4989779;28;20034;-80
2022/02/26 08:20:52;;;;;;;7.53;2.80;;;8.50;48.20;;;;;;4988486;28;20272;-80
2022/02/26 08:23:17;;;;;;;18.38;3.92;;;8.40;48.10;;;;;;4986596;28;20459;-81
2022/02/26 08:25:43;;;;;;;25.05;11.18;;;8.40;47.30;;;;;;4987042;28;20077;-79
2022/02/26 08:28:09;;;;;;;;;;;8.50;47.40;;;;;;4976751;28;20039;-85
2022/02/26 08:30:35;;;;;;;13.80;6.32;;;8.50;47.20;;;;;;4970427;28;20646;-86
2022/02/26 08:33:01;;;;;;;10.55;6.10;;;8.60;46.30;;;;;;4971272;28;20051;-84
2022/02/26 08:35:27;;;;;;;11.90;4.40;;;8.60;46.10;;;;;;4971291;28;20399;-79
2022/02/26 08:37:52;;;;;;;;;;;8.60;46.10;;;;;;4980664;28;20575;-82
2022/02/26 08:40:18;;;;;;;9.90;4.05;;;8.70;45.30;;;;;;4972584;28;19957;-82
2022/02/26 08:42:44;;;;;;;;;;;8.70;45.90;;;;;;4971911;28;20018;-84
2022/02/26 08:45:10;;;;;;;6.20;1.30;;;8.80;45.50;;;;;;4976643;28;20391;-79
2022/02/26 08:47:36;;;;;;;4.68;1.58;;;9.00;42.30;;;;;;4983842;28;20046;-79
2022/02/26 08:50:04;;;;;;;4.85;1.50;;;8.90;42.50;;;;;;4985400;28;20113;-80
2022/02/26 08:52:31;;;;;;;8.43;1.88;;;9.00;42.40;;;;;;4985986;28;20039;-80
2022/02/26 08:54:56;;;;;;;5.50;1.05;;;9.30;41.70;;;;;;4984435;28;20042;-79
2022/02/26 08:57:22;;;;;;;5.22;1.58;;;9.50;41.10;;;;;;4983185;28;20027;-80
2022/02/26 08:59:48;;;;;;;;;;;9.60;40.10;;;;;;4985494;28;20037;-79
2022/02/26 09:02:14;;;;;;;5.55;2.60;;;9.60;40.70;;;;;;4985246;28;19969;-80
2022/02/26 09:04:39;;;;;;;4.88;1.60;;;9.80;39.30;;;;;;4983805;28;20030;-79
2022/02/26 09:07:05;;;;;;;;;;;10.20;38.70;;;;;;4976204;28;20104;-85
2022/02/26 09:09:31;;;;;;;4.45;1.40;;;10.20;38.20;;;;;;4970928;28;20457;-87
2022/02/26 09:11:57;;;;;;;;;;;10.30;38.50;;;;;;4970339;28;20402;-81
2022/02/26 09:14:23;;;;;;;4.68;1.30;;;10.70;37.90;;;;;;4977879;28;19950;-80
2022/02/26 09:16:49;;;;;;;4.35;1.50;;;11.00;36.70;;;;;;4976583;28;20054;-80
2022/02/26 09:19:15;;;;;;;;;;;11.00;35.20;;;;;;4972738;28;20117;-81
2022/02/26 09:21:41;;;;;;;2.60;0.88;;;11.10;35.50;;;;;;4970764;28;19906;-80
2022/02/26 09:24:06;;;;;;;;;;;11.20;34.60;;;;;;4970147;28;20500;-83
2022/02/26 09:26:32;;;;;;;5.13;1.00;;;11.20;33.70;;;;;;4972031;28;19912;-85
2022/02/26 09:28:58;;;;;;;;;;;11.00;34.40;;;;;;4970161;28;20097;-82
2022/02/26 09:31:23;;;;;;;4.97;1.00;;;11.00;35.10;;;;;;4971572;28;20335;-79
2022/02/26 09:33:49;;;;;;;;;;;11.40;32.60;;;;;;4985019;28;20480;-80
2022/02/26 09:36:15;;;;;;;3.13;0.80;;;11.00;33.40;;;;;;4980665;28;19906;-79
2022/02/26 09:38:42;;;;;;;11.00;4.93;;;11.00;33.20;;;;;;4983267;28;20042;-79
2022/02/26 09:41:09;;;;;;;5.72;1.23;;;10.90;33.80;;;;;;4984665;28;20034;-80
2022/02/26 09:43:35;;;;;;;2.33;0.63;;;11.00;33.90;;;;;;4982753;28;20403;-79
2022/02/26 09:46:03;;;;;;;3.95;0.95;;;11.00;32.80;;;;;;4991417;28;20047;-79
2022/02/26 09:48:29;;;;;;;4.32;1.17;;;11.20;33.40;;;;;;4996748;28;20035;-81
2022/02/26 09:50:55;;;;;;;3.95;1.20;;;11.20;33.20;;;;;;4989357;28;20034;-79
2022/02/26 09:53:21;;;;;;;;;;;11.30;32.90;;;;;;4988663;28;20019;-79
2022/02/26 09:55:47;;;;;;;5.03;1.17;;;11.20;33.20;;;;;;4989170;28;20379;-79
2022/02/26 09:58:15;;;;;;;5.20;1.45;;;11.20;33.30;;;;;;4989284;28;20026;-80
2022/02/26 10:00:44;;;;;;;4.15;1.05;;;11.30;32.30;;;;;;4988865;28;20026;-80
2022/02/26 10:03:25;;;;;;;3.92;1.27;;;11.00;33.40;;;;;;4986732;28;20034;-80
2022/02/26 10:06:03;;;;;;;3.47;0.98;;;10.80;34.10;;;;;;4989028;28;20613;-79
2022/02/26 10:08:35;;;;;;;4.40;1.05;;;11.00;33.40;;;;;;4986012;28;20073;-79
2022/02/26 10:11:01;;;;;;;6.38;1.40;;;10.70;34.10;;;;;;4979674;28;20085;-81
2022/02/26 10:13:26;;;;;;;;;;;10.90;34.60;;;;;;4972987;28;20568;-80
2022/02/26 10:15:52;;;;;;;4.60;1.33;;;11.10;33.40;;;;;;4973405;28;19909;-82
2022/02/26 10:18:18;;;;;;;;;;;11.00;33.50;;;;;;4972959;28;20074;-86
2022/02/26 10:20:54;;;;;;;6.50;1.17;;;11.20;33.00;;;;;;4973256;28;19920;-85
2022/02/26 10:23:22;;;;;;;6.55;1.38;;;11.50;32.80;;;;;;4978062;28;20038;-80
2022/02/26 10:25:49;;;;;;;4.70;1.27;;;11.80;31.50;;;;;;4982779;28;20031;-80
2022/02/26 10:28:15;;;;;;;3.78;0.95;;;11.40;32.30;;;;;;4973612;28;20069;-85
2022/02/26 10:30:45;;;;;;;4.72;1.70;;;11.30;33.20;;;;;;4978589;28;20095;-79
2022/02/26 10:33:23;;;;;;;7.13;3.03;;;11.10;32.60;;;;;;4985620;28;20031;-80
2022/02/26 10:35:54;;;;;;;6.15;1.75;;;10.70;32.40;;;;;;4986690;28;20034;-80
2022/02/26 10:38:23;;;;;;;3.92;1.13;;;10.50;33.60;;;;;;4986160;28;20030;-80
2022/02/26 10:40:48;;;;;;;4.20;1.30;;;10.20;33.70;;;;;;4996892;28;20074;-79
2022/02/26 10:43:14;;;;;;;;;;;10.30;33.70;;;;;;4992580;28;20031;-80
2022/02/26 10:45:39;;;;;;;6.57;1.27;;;10.10;32.30;;;;;;4984152;28;20375;-80
2022/02/26 10:48:05;;;;;;;3.28;1.33;;;9.80;33.70;;;;;;4984682;28;20038;-80
2022/02/26 10:50:34;;;;;;;;;;;9.40;35.50;;;;;;4985733;28;20097;-78
2022/02/26 10:53:06;;;;;;;7.70;1.63;;;9.40;35.10;;;;;;4986271;28;19910;-79
2022/02/26 10:55:49;;;;;;;7.63;2.65;;;9.30;36.20;;;;;;4986835;28;20030;-79
2022/02/26 10:58:20;;;;;;;6.10;1.92;;;9.40;36.40;;;;;;4986120;28;20110;-79
2022/02/26 11:00:46;;;;;;;5.65;2.38;;;9.70;35.60;;;;;;4985804;28;20030;-79
2022/02/26 11:03:12;;;;;;;;;;;9.80;35.10;;;;;;4985535;28;20034;-79
2022/02/26 11:05:38;;;;;;;6.95;2.10;;;9.80;33.50;;;;;;4983209;28;19973;-80
2022/02/26 11:08:05;;;;;;;8.80;2.97;;;9.70;35.20;;;;;;4981662;28;20122;-79
2022/02/26 11:10:32;;;;;;;4.57;1.42;;;9.60;35.20;;;;;;4984626;28;20038;-80
2022/02/26 11:12:59;;;;;;;6.55;1.63;;;9.50;33.90;;;;;;4981589;28;20035;-79
2022/02/26 11:15:28;;;;;;;10.90;3.65;;;9.30;33.50;;;;;;4983144;28;20026;-79
2022/02/26 11:17:56;;;;;;;5.03;1.35;;;9.20;34.50;;;;;;4982619;28;20386;-80
2022/02/26 11:20:26;;;;;;;4.07;1.40;;;9.30;34.00;;;;;;4981002;28;20045;-79
2022/02/26 11:22:55;;;;;;;8.82;1.80;;;9.30;33.20;;;;;;4982210;28;20038;-79
2022/02/26 11:25:22;;;;;;;5.50;1.52;;;9.20;33.80;;;;;;4983259;28;20054;-80
2022/02/26 11:27:48;;;;;;;5.15;1.63;;;9.40;32.60;;;;;;4984689;28;20035;-79
2022/02/26 11:30:19;;;;;;;3.75;1.10;;;9.30;33.60;;;;;;4985189;28;20073;-80
2022/02/26 11:32:47;;;;;;;4.45;1.33;;;9.40;33.10;;;;;;4985145;28;20035;-82
2022/02/26 11:35:26;;;;;;;6.72;2.00;;;9.40;33.50;;;;;;4984301;28;20027;-79
2022/02/26 11:38:05;;;;;;;4.55;1.30;;;9.60;33.20;;;;;;4982320;28;20068;-81
2022/02/26 11:40:31;;;;;;;3.58;1.00;;;9.80;32.60;;;;;;4982979;28;20038;-79
2022/02/26 11:42:57;;;;;;;5.22;1.55;;;9.80;31.80;;;;;;4983603;28;20023;-81
2022/02/26 11:45:29;;;;;;;5.68;2.20;;;9.60;32.80;;;;;;4983845;28;20066;-79
2022/02/26 11:48:03;;;;;;;4.63;1.13;;;9.60;34.10;;;;;;4985322;28;20049;-79
2022/02/26 11:50:38;;;;;;;6.47;1.50;;;9.80;34.00;;;;;;4987542;28;20027;-79
2022/02/26 11:53:19;;;;;;;5.07;1.27;;;9.50;33.00;;;;;;4986114;28;20030;-79
2022/02/26 11:55:49;;;;;;;5.53;1.77;;;9.80;32.60;;;;;;4985781;28;20031;-79
2022/02/26 11:58:30;;;;;;;4.00;1.25;;;9.80;33.50;;;;;;4986072;28;20031;-80
2022/02/26 12:01:04;;;;;;;6.10;1.42;;;9.90;32.70;;;;;;4985868;28;20041;-79
2022/02/26 12:03:39;;;;;;;3.03;1.00;;;10.10;31.20;;;;;;4985321;28;20559;-79
2022/02/26 12:06:13;;;;;;;5.00;1.25;;;10.10;31.40;;;;;;4985579;28;20033;-80
2022/02/26 12:08:59;;;;;;;6.90;2.15;;;10.10;30.30;;;;;;4985839;28;20041;-79
2022/02/26 12:11:37;;;;;;;5.75;1.73;;;10.00;30.00;;;;;;4985663;28;20034;-81
2022/02/26 12:14:17;;;;;;;9.35;1.58;;;9.80;30.80;;;;;;4984650;28;20050;-79
2022/02/26 12:16:42;;;;;;;17.27;8.05;;;9.80;31.60;;;;;;4985282;28;20105;-79
2022/02/26 12:19:16;;;;;;;5.38;1.00;;;9.80;31.30;;;;;;4984610;28;20026;-81
2022/02/26 12:21:48;;;;;;;4.03;1.73;;;9.90;31.20;;;;;;4999666;28;20050;-80
2022/02/26 12:24:22;;;;;;;6.55;1.63;;;9.80;30.60;;;;;;4984488;28;20030;-79
2022/02/26 12:27:09;;;;;;;6.97;2.92;;;9.70;30.80;;;;;;4985778;28;20023;-79
2022/02/26 12:29:44;;;;;;;7.18;1.65;;;9.70;31.60;;;;;;4986546;28;20034;-80
2022/02/26 12:32:15;;;;;;;5.70;2.03;;;9.90;31.80;;;;;;4985921;28;20023;-80
2022/02/26 12:35:08;;;;;;;8.50;3.20;;;9.90;32.40;;;;;;4985549;28;20094;-79
2022/02/26 12:37:36;;;;;;;3.17;1.20;;;10.10;32.50;;;;;;4978352;28;20039;-80
2022/02/26 12:40:09;;;;;;;6.10;1.25;;;9.90;32.90;;;;;;4982598;28;20146;-79
2022/02/26 12:42:41;;;;;;;5.60;1.40;;;9.70;32.80;;;;;;4981123;28;20039;-79
2022/02/26 12:45:10;;;;;;;8.60;3.03;;;9.50;33.10;;;;;;4982428;28;20110;-80
2022/02/26 12:47:37;;;;;;;9.38;3.33;;;9.40;34.20;;;;;;4982099;28;20035;-79
2022/02/26 12:50:05;;;;;;;10.93;4.55;;;9.50;33.70;;;;;;4982768;28;20099;-79
2022/02/26 12:52:34;;;;;;;6.97;2.40;;;9.40;34.00;;;;;;4982047;28;20023;-80
2022/02/26 12:55:08;;;;;;;8.63;2.00;;;9.60;34.10;;;;;;4982270;28;20030;-79
2022/02/26 12:57:45;;;;;;;6.65;2.65;;;9.60;34.30;;;;;;4982422;28;20058;-79
2022/02/26 13:00:24;;;;;;;5.15;2.60;;;9.60;34.60;;;;;;4981377;28;20476;-79
2022/02/26 13:03:09;;;;;;;10.85;4.35;;;9.50;34.60;;;;;;4983047;28;20030;-80
2022/02/26 13:05:39;;;;;;;7.05;3.10;;;9.50;35.90;;;;;;4983031;28;20435;-80
2022/02/26 13:08:15;;;;;;;8.88;2.78;;;9.80;35.20;;;;;;4982040;28;20058;-80